sensor_id;sensor_type;location;lat;lon;timestamp;temperature;humidity
6788;DHT22;3431;47.966;10.268;2023-02-15T00:00:13;-1.60;99.90
6788;DHT22;3431;47.966;10.268;2023-02-15T00:00:35;-1.40;99.90
6788;DHT22;3431;47.966;10.268;2023-02-15T00:01:05;-1.60;99.90
6788;DHT22;3431;47.966;10.268;2023-02-15T00:01:26;-1.60;99.90
6788;DHT22;3431;47.966;10.268;2023-02-15T00:01:49;-1.60;99.90
6788;DHT22;3431;47.966;10.268;2023-02-15T00:02:11;-1.60;99.90
6788;DHT22;3431;47.966;10.268;2023-02-15T00:02:32;-1.60;99.90
6788;DHT22;3431;47.966;10.268;2023-02-15T00:02:54;-1.60;99.90
6788;DHT22;3431;47.966;10.268;2023-02-15T00:03:16;-1.60;99.90
6788;DHT22;3431;47.966;10.268;2023-02-15T00:03:38;-1.60;99.90
6788;DHT22;3431;47.966;10.268;2023-02-15T00:04:00;-1.60;99.90
6788;DHT22;3431;47.966;10.268;2023-02-15T00:04:23;-1.60;99.90
6788;DHT22;3431;47.966;10.268;2023-02-15T00:05:07;-1.60;99.90
6788;DHT22;3431;47.966;10.268;2023-02-15T00:05:30;-1.60;99.90
6788;DHT22;3431;47.966;10.268;2023-02-15T00:05:51;-1.60;99.90
6788;DHT22;3431;47.966;10.268;2023-02-15T00:06:14;-1.60;99.90
6788;DHT22;3431;47.966;10.268;2023-02-15T00:06:36;-1.70;99.90
6788;DHT22;3431;47.966;10.268;2023-02-15T00:06:57;-1.60;99.90
6788;DHT22;3431;47.966;10.268;2023-02-15T00:07:19;-1.70;99.90
6788;DHT22;3431;47.966;10.268;2023-02-15T00:07:43;-1.70;99.90
6788;DHT22;3431;47.966;10.268;2023-02-15T00:08:05;-1.70;99.90
6788;DHT22;3431;47.966;10.268;2023-02-15T00:08:26;-1.70;99.90
6788;DHT22;3431;47.966;10.268;2023-02-15T00:08:48;-1.70;99.90
6788;DHT22;3431;47.966;10.268;2023-02-15T00:09:11;-1.70;99.90
6788;DHT22;3431;47.966;10.268;2023-02-15T00:09:33;-1.80;99.90
6788;DHT22;3431;47.966;10.268;2023-02-15T00:09:54;-1.80;99.90
6788;DHT22;3431;47.966;10.268;2023-02-15T00:10:16;-1.80;99.90
6788;DHT22;3431;47.966;10.268;2023-02-15T00:10:38;-1.80;99.90
6788;DHT22;3431;47.966;10.268;2023-02-15T00:11:05;-1.80;99.90
6788;DHT22;3431;47.966;10.268;2023-02-15T00:11:27;-1.80;99.90
6788;DHT22;3431;47.966;10.268;2023-02-15T00:12:00;-1.80;99.90
6788;DHT22;3431;47.966;10.268;2023-02-15T00:12:22;-1.90;99.90
6788;DHT22;3431;47.966;10.268;2023-02-15T00:12:44;-1.80;99.90
6788;DHT22;3431;47.966;10.268;2023-02-15T00:13:06;-1.90;99.90
6788;DHT22;3431;47.966;10.268;2023-02-15T00:13:27;-1.90;99.90
6788;DHT22;3431;47.966;10.268;2023-02-15T00:13:49;-1.90;99.90
6788;DHT22;3431;47.966;10.268;2023-02-15T00:14:13;-1.90;99.90
6788;DHT22;3431;47.966;10.268;2023-02-15T00:14:35;-1.90;99.90
6788;DHT22;3431;47.966;10.268;2023-02-15T00:14:56;-1.90;99.90
6788;DHT22;3431;47.966;10.268;2023-02-15T00:15:18;-1.90;99.90
6788;DHT22;3431;47.966;10.268;2023-02-15T00:15:40;-1.90;99.90
6788;DHT22;3431;47.966;10.268;2023-02-15T00:16:02;-1.90;99.90
6788;DHT22;3431;47.966;10.268;2023-02-15T00:16:24;-1.90;99.90
6788;DHT22;3431;47.966;10.268;2023-02-15T00:16:46;-1.90;99.90
6788;DHT22;3431;47.966;10.268;2023-02-15T00:17:09;-1.90;99.90
6788;DHT22;3431;47.966;10.268;2023-02-15T00:17:31;-1.90;99.90
6788;DHT22;3431;47.966;10.268;2023-02-15T00:17:52;-1.90;99.90
6788;DHT22;3431;47.966;10.268;2023-02-15T00:18:14;-1.90;99.90
6788;DHT22;3431;47.966;10.268;2023-02-15T00:18:35;-2.00;99.90
6788;DHT22;3431;47.966;10.268;2023-02-15T00:18:58;-1.90;99.90
6788;DHT22;3431;47.966;10.268;2023-02-15T00:19:22;-2.00;99.90
6788;DHT22;3431;47.966;10.268;2023-02-15T00:19:44;-2.00;99.90
6788;DHT22;3431;47.966;10.268;2023-02-15T00:20:06;-2.00;99.90
6788;DHT22;3431;47.966;10.268;2023-02-15T00:20:29;-2.00;99.90
6788;DHT22;3431;47.966;10.268;2023-02-15T00:20:50;-2.00;99.90
6788;DHT22;3431;47.966;10.268;2023-02-15T00:21:12;-2.00;99.90
6788;DHT22;3431;47.966;10.268;2023-02-15T00:21:34;-2.00;99.90
6788;DHT22;3431;47.966;10.268;2023-02-15T00:21:56;-2.00;99.90
6788;DHT22;3431;47.966;10.268;2023-02-15T00:22:20;-2.00;99.90
6788;DHT22;3431;47.966;10.268;2023-02-15T00:22:42;-2.00;99.90
6788;DHT22;3431;47.966;10.268;2023-02-15T00:23:04;-2.50;99.90
6788;DHT22;3431;47.966;10.268;2023-02-15T00:23:26;-2.00;99.90
6788;DHT22;3431;47.966;10.268;2023-02-15T00:23:49;-2.00;99.90
6788;DHT22;3431;47.966;10.268;2023-02-15T00:24:12;-2.10;99.90
6788;DHT22;3431;47.966;10.268;2023-02-15T00:24:34;-2.00;99.90
6788;DHT22;3431;47.966;10.268;2023-02-15T00:24:56;-2.10;99.90
6788;DHT22;3431;47.966;10.268;2023-02-15T00:25:17;-2.10;99.90
6788;DHT22;3431;47.966;10.268;2023-02-15T00:25:39;-2.10;99.90
6788;DHT22;3431;47.966;10.268;2023-02-15T00:26:05;-2.10;99.90
6788;DHT22;3431;47.966;10.268;2023-02-15T00:26:28;-2.10;99.90
6788;DHT22;3431;47.966;10.268;2023-02-15T00:26:50;-2.10;99.90
6788;DHT22;3431;47.966;10.268;2023-02-15T00:27:12;-2.10;99.90
6788;DHT22;3431;47.966;10.268;2023-02-15T00:27:34;-2.20;99.90
6788;DHT22;3431;47.966;10.268;2023-02-15T00:27:59;-2.20;99.90
6788;DHT22;3431;47.966;10.268;2023-02-15T00:28:21;-2.20;99.90
6788;DHT22;3431;47.966;10.268;2023-02-15T00:28:43;-2.20;99.90
6788;DHT22;3431;47.966;10.268;2023-02-15T00:29:04;-2.20;99.90
6788;DHT22;3431;47.966;10.268;2023-02-15T00:29:27;-2.20;99.90
6788;DHT22;3431;47.966;10.268;2023-02-15T00:29:49;-2.20;99.90
6788;DHT22;3431;47.966;10.268;2023-02-15T00:30:11;-2.20;99.90
6788;DHT22;3431;47.966;10.268;2023-02-15T00:30:33;-2.20;99.90
6788;DHT22;3431;47.966;10.268;2023-02-15T00:31:02;-2.20;99.90
6788;DHT22;3431;47.966;10.268;2023-02-15T00:31:25;-2.20;99.90
6788;DHT22;3431;47.966;10.268;2023-02-15T00:31:47;-2.20;99.90
6788;DHT22;3431;47.966;10.268;2023-02-15T00:32:09;-2.20;99.90
6788;DHT22;3431;47.966;10.268;2023-02-15T00:32:31;-2.20;99.90
6788;DHT22;3431;47.966;10.268;2023-02-15T00:32:53;-2.20;99.90
6788;DHT22;3431;47.966;10.268;2023-02-15T00:33:14;-2.10;99.90
6788;DHT22;3431;47.966;10.268;2023-02-15T00:33:37;-2.10;99.90
6788;DHT22;3431;47.966;10.268;2023-02-15T00:34:01;-2.10;99.90
6788;DHT22;3431;47.966;10.268;2023-02-15T00:34:25;-2.10;99.90
6788;DHT22;3431;47.966;10.268;2023-02-15T00:34:50;-2.10;99.90
6788;DHT22;3431;47.966;10.268;2023-02-15T00:35:11;-2.10;99.90
6788;DHT22;3431;47.966;10.268;2023-02-15T00:35:34;-2.00;99.90
6788;DHT22;3431;47.966;10.268;2023-02-15T00:35:56;-2.00;99.90
6788;DHT22;3431;47.966;10.268;2023-02-15T00:36:18;-2.00;99.90
6788;DHT22;3431;47.966;10.268;2023-02-15T00:36:39;-2.00;99.90
6788;DHT22;3431;47.966;10.268;2023-02-15T00:37:02;-2.00;99.90
6788;DHT22;3431;47.966;10.268;2023-02-15T00:37:24;-1.90;99.90
6788;DHT22;3431;47.966;10.268;2023-02-15T00:37:47;-1.90;99.90
6788;DHT22;3431;47.966;10.268;2023-02-15T00:38:08;-1.90;99.90
6788;DHT22;3431;47.966;10.268;2023-02-15T00:38:30;-1.90;99.90
6788;DHT22;3431;47.966;10.268;2023-02-15T00:38:53;-1.90;99.90
6788;DHT22;3431;47.966;10.268;2023-02-15T00:39:16;-1.90;99.90
6788;DHT22;3431;47.966;10.268;2023-02-15T00:39:38;-1.80;99.90
6788;DHT22;3431;47.966;10.268;2023-02-15T00:40:01;-1.80;99.90
6788;DHT22;3431;47.966;10.268;2023-02-15T00:40:24;-1.80;99.90
6788;DHT22;3431;47.966;10.268;2023-02-15T00:40:52;-1.80;99.90
6788;DHT22;3431;47.966;10.268;2023-02-15T00:41:14;-1.80;99.90
6788;DHT22;3431;47.966;10.268;2023-02-15T00:41:36;-1.80;99.90
6788;DHT22;3431;47.966;10.268;2023-02-15T00:41:58;-1.70;99.90
6788;DHT22;3431;47.966;10.268;2023-02-15T00:42:20;-1.70;99.90
6788;DHT22;3431;47.966;10.268;2023-02-15T00:42:42;-1.70;99.90
6788;DHT22;3431;47.966;10.268;2023-02-15T00:43:04;-1.70;99.90
6788;DHT22;3431;47.966;10.268;2023-02-15T00:43:26;-1.70;99.90
6788;DHT22;3431;47.966;10.268;2023-02-15T00:43:48;-1.70;99.90
6788;DHT22;3431;47.966;10.268;2023-02-15T00:44:09;-1.70;99.90
6788;DHT22;3431;47.966;10.268;2023-02-15T00:44:32;-1.60;99.90
6788;DHT22;3431;47.966;10.268;2023-02-15T00:44:53;-1.60;99.90
6788;DHT22;3431;47.966;10.268;2023-02-15T00:45:15;-1.60;99.90
6788;DHT22;3431;47.966;10.268;2023-02-15T00:45:37;-1.60;99.90
6788;DHT22;3431;47.966;10.268;2023-02-15T00:46:00;-1.60;99.90
6788;DHT22;3431;47.966;10.268;2023-02-15T00:46:22;-1.60;99.90
6788;DHT22;3431;47.966;10.268;2023-02-15T00:46:43;-1.60;99.90
6788;DHT22;3431;47.966;10.268;2023-02-15T00:47:06;-1.60;99.90
6788;DHT22;3431;47.966;10.268;2023-02-15T00:47:27;-1.60;99.90
6788;DHT22;3431;47.966;10.268;2023-02-15T00:47:49;-1.60;99.90
6788;DHT22;3431;47.966;10.268;2023-02-15T00:48:11;-1.60;99.90
6788;DHT22;3431;47.966;10.268;2023-02-15T00:48:33;-1.60;99.90
6788;DHT22;3431;47.966;10.268;2023-02-15T00:48:55;-1.60;99.90
6788;DHT22;3431;47.966;10.268;2023-02-15T00:49:16;-1.60;99.90
6788;DHT22;3431;47.966;10.268;2023-02-15T00:49:38;-1.60;99.90
6788;DHT22;3431;47.966;10.268;2023-02-15T00:50:00;-1.60;99.90
6788;DHT22;3431;47.966;10.268;2023-02-15T00:50:22;-1.60;99.90
6788;DHT22;3431;47.966;10.268;2023-02-15T00:50:45;-1.60;99.90
6788;DHT22;3431;47.966;10.268;2023-02-15T00:51:07;-1.60;99.90
6788;DHT22;3431;47.966;10.268;2023-02-15T00:51:28;-1.50;99.90
6788;DHT22;3431;47.966;10.268;2023-02-15T00:51:51;-1.50;99.90
6788;DHT22;3431;47.966;10.268;2023-02-15T00:52:13;-1.50;99.90
6788;DHT22;3431;47.966;10.268;2023-02-15T00:52:34;-1.50;99.90
6788;DHT22;3431;47.966;10.268;2023-02-15T00:52:59;-1.50;99.90
6788;DHT22;3431;47.966;10.268;2023-02-15T00:53:22;-1.50;99.90
6788;DHT22;3431;47.966;10.268;2023-02-15T00:53:43;-1.50;99.90
6788;DHT22;3431;47.966;10.268;2023-02-15T00:54:05;-1.50;99.90
6788;DHT22;3431;47.966;10.268;2023-02-15T00:54:27;-1.50;99.90
6788;DHT22;3431;47.966;10.268;2023-02-15T00:54:51;-1.50;99.90
6788;DHT22;3431;47.966;10.268;2023-02-15T00:55:12;-1.60;99.90
6788;DHT22;3431;47.966;10.268;2023-02-15T00:55:34;-1.50;99.90
6788;DHT22;3431;47.966;10.268;2023-02-15T00:55:55;-1.50;99.90
6788;DHT22;3431;47.966;10.268;2023-02-15T00:56:18;-1.50;99.90
6788;DHT22;3431;47.966;10.268;2023-02-15T00:56:40;-1.50;99.90
6788;DHT22;3431;47.966;10.268;2023-02-15T00:57:02;-1.50;99.90
6788;DHT22;3431;47.966;10.268;2023-02-15T00:57:24;-1.50;99.90
6788;DHT22;3431;47.966;10.268;2023-02-15T00:57:46;-1.50;99.90
6788;DHT22;3431;47.966;10.268;2023-02-15T00:58:08;-1.50;99.90
6788;DHT22;3431;47.966;10.268;2023-02-15T00:58:30;-1.50;99.90
6788;DHT22;3431;47.966;10.268;2023-02-15T00:58:52;-1.50;99.90
6788;DHT22;3431;47.966;10.268;2023-02-15T00:59:13;-1.50;99.90
6788;DHT22;3431;47.966;10.268;2023-02-15T00:59:36;-1.50;99.90
6788;DHT22;3431;47.966;10.268;2023-02-15T00:59:57;-1.50;99.90
6788;DHT22;3431;47.966;10.268;2023-02-15T01:00:19;-1.50;99.90
6788;DHT22;3431;47.966;10.268;2023-02-15T01:00:42;-1.50;99.90
6788;DHT22;3431;47.966;10.268;2023-02-15T01:01:07;-1.50;99.90
6788;DHT22;3431;47.966;10.268;2023-02-15T01:01:29;-1.60;99.90
6788;DHT22;3431;47.966;10.268;2023-02-15T01:01:51;-1.60;99.90
6788;DHT22;3431;47.966;10.268;2023-02-15T01:02:14;-1.60;99.90
6788;DHT22;3431;47.966;10.268;2023-02-15T01:02:36;-1.50;99.90
6788;DHT22;3431;47.966;10.268;2023-02-15T01:02:57;-1.60;99.90
6788;DHT22;3431;47.966;10.268;2023-02-15T01:03:20;-1.60;99.90
6788;DHT22;3431;47.966;10.268;2023-02-15T01:03:42;-1.60;99.90
6788;DHT22;3431;47.966;10.268;2023-02-15T01:04:05;-1.60;99.90
6788;DHT22;3431;47.966;10.268;2023-02-15T01:04:26;-1.60;99.90
6788;DHT22;3431;47.966;10.268;2023-02-15T01:04:48;-1.60;99.90
6788;DHT22;3431;47.966;10.268;2023-02-15T01:05:11;-1.60;99.90
6788;DHT22;3431;47.966;10.268;2023-02-15T01:05:32;-1.60;99.90
6788;DHT22;3431;47.966;10.268;2023-02-15T01:05:55;-1.60;99.90
6788;DHT22;3431;47.966;10.268;2023-02-15T01:06:17;-1.60;99.90
6788;DHT22;3431;47.966;10.268;2023-02-15T01:06:38;-1.60;99.90
6788;DHT22;3431;47.966;10.268;2023-02-15T01:07:00;-1.60;99.90
6788;DHT22;3431;47.966;10.268;2023-02-15T01:07:23;-1.70;99.90
6788;DHT22;3431;47.966;10.268;2023-02-15T01:07:44;-1.60;99.90
6788;DHT22;3431;47.966;10.268;2023-02-15T01:08:07;-1.60;99.90
6788;DHT22;3431;47.966;10.268;2023-02-15T01:08:29;-1.70;99.90
6788;DHT22;3431;47.966;10.268;2023-02-15T01:08:51;-1.70;99.90
6788;DHT22;3431;47.966;10.268;2023-02-15T01:09:14;-1.60;99.90
6788;DHT22;3431;47.966;10.268;2023-02-15T01:09:35;-1.70;99.90
6788;DHT22;3431;47.966;10.268;2023-02-15T01:09:58;-1.70;99.90
6788;DHT22;3431;47.966;10.268;2023-02-15T01:10:19;-1.70;99.90
6788;DHT22;3431;47.966;10.268;2023-02-15T01:10:41;-1.70;99.90
6788;DHT22;3431;47.966;10.268;2023-02-15T01:11:05;-1.70;99.90
6788;DHT22;3431;47.966;10.268;2023-02-15T01:11:27;-1.70;99.90
6788;DHT22;3431;47.966;10.268;2023-02-15T01:11:48;-1.70;99.90
6788;DHT22;3431;47.966;10.268;2023-02-15T01:12:10;-1.70;99.90
6788;DHT22;3431;47.966;10.268;2023-02-15T01:12:32;-1.70;99.90
6788;DHT22;3431;47.966;10.268;2023-02-15T01:12:55;-1.70;99.90
6788;DHT22;3431;47.966;10.268;2023-02-15T01:13:17;-1.70;99.90
6788;DHT22;3431;47.966;10.268;2023-02-15T01:13:39;-1.80;99.90
6788;DHT22;3431;47.966;10.268;2023-02-15T01:14:02;-1.80;99.90
6788;DHT22;3431;47.966;10.268;2023-02-15T01:14:24;-1.80;99.90
6788;DHT22;3431;47.966;10.268;2023-02-15T01:14:46;-1.80;99.90
6788;DHT22;3431;47.966;10.268;2023-02-15T01:15:08;-1.80;99.90
6788;DHT22;3431;47.966;10.268;2023-02-15T01:15:34;-1.80;99.90
6788;DHT22;3431;47.966;10.268;2023-02-15T01:15:56;-1.80;99.90
6788;DHT22;3431;47.966;10.268;2023-02-15T01:16:17;-1.80;99.90
6788;DHT22;3431;47.966;10.268;2023-02-15T01:16:39;-1.80;99.90
6788;DHT22;3431;47.966;10.268;2023-02-15T01:17:02;-1.80;99.90
6788;DHT22;3431;47.966;10.268;2023-02-15T01:17:23;-1.80;99.90
6788;DHT22;3431;47.966;10.268;2023-02-15T01:17:45;-1.90;99.90
6788;DHT22;3431;47.966;10.268;2023-02-15T01:18:12;-1.90;99.90
6788;DHT22;3431;47.966;10.268;2023-02-15T01:18:34;-1.90;99.90
6788;DHT22;3431;47.966;10.268;2023-02-15T01:18:57;-1.90;99.90
6788;DHT22;3431;47.966;10.268;2023-02-15T01:19:19;-1.90;99.90
6788;DHT22;3431;47.966;10.268;2023-02-15T01:19:40;-1.90;99.90
6788;DHT22;3431;47.966;10.268;2023-02-15T01:20:02;-1.90;99.90
6788;DHT22;3431;47.966;10.268;2023-02-15T01:20:26;-1.90;99.90
6788;DHT22;3431;47.966;10.268;2023-02-15T01:20:48;-1.90;99.90
6788;DHT22;3431;47.966;10.268;2023-02-15T01:21:12;-1.90;99.90
6788;DHT22;3431;47.966;10.268;2023-02-15T01:21:34;-1.90;99.90
6788;DHT22;3431;47.966;10.268;2023-02-15T01:21:57;-2.00;99.90
6788;DHT22;3431;47.966;10.268;2023-02-15T01:22:19;-1.90;99.90
6788;DHT22;3431;47.966;10.268;2023-02-15T01:22:41;-1.90;99.90
6788;DHT22;3431;47.966;10.268;2023-02-15T01:23:03;-2.00;99.90
6788;DHT22;3431;47.966;10.268;2023-02-15T01:23:26;-2.00;99.90
6788;DHT22;3431;47.966;10.268;2023-02-15T01:23:48;-2.00;99.90
6788;DHT22;3431;47.966;10.268;2023-02-15T01:24:12;-2.00;99.90
6788;DHT22;3431;47.966;10.268;2023-02-15T01:24:34;-2.00;99.90
6788;DHT22;3431;47.966;10.268;2023-02-15T01:24:57;-2.00;99.90
6788;DHT22;3431;47.966;10.268;2023-02-15T01:25:20;-2.00;99.90
6788;DHT22;3431;47.966;10.268;2023-02-15T01:25:43;-2.00;99.90
6788;DHT22;3431;47.966;10.268;2023-02-15T01:26:05;-2.00;99.90
6788;DHT22;3431;47.966;10.268;2023-02-15T01:26:27;-2.00;99.90
6788;DHT22;3431;47.966;10.268;2023-02-15T01:26:48;-2.00;99.90
6788;DHT22;3431;47.966;10.268;2023-02-15T01:27:11;-2.00;99.90
6788;DHT22;3431;47.966;10.268;2023-02-15T01:27:32;-2.00;99.90
6788;DHT22;3431;47.966;10.268;2023-02-15T01:27:54;-2.00;99.90
6788;DHT22;3431;47.966;10.268;2023-02-15T01:28:15;-2.00;99.90
6788;DHT22;3431;47.966;10.268;2023-02-15T01:28:37;-2.00;99.90
6788;DHT22;3431;47.966;10.268;2023-02-15T01:29:00;-2.00;99.90
6788;DHT22;3431;47.966;10.268;2023-02-15T01:29:21;-2.00;99.90
6788;DHT22;3431;47.966;10.268;2023-02-15T01:29:43;-2.00;99.90
6788;DHT22;3431;47.966;10.268;2023-02-15T01:30:06;-2.00;99.90
6788;DHT22;3431;47.966;10.268;2023-02-15T01:30:28;-2.00;99.90
6788;DHT22;3431;47.966;10.268;2023-02-15T01:30:51;-2.00;99.90
6788;DHT22;3431;47.966;10.268;2023-02-15T01:31:14;-2.00;99.90
6788;DHT22;3431;47.966;10.268;2023-02-15T01:31:35;-2.00;99.90
6788;DHT22;3431;47.966;10.268;2023-02-15T01:32:01;-2.00;99.90
6788;DHT22;3431;47.966;10.268;2023-02-15T01:32:24;-2.00;99.90
6788;DHT22;3431;47.966;10.268;2023-02-15T01:32:46;-2.00;99.90
6788;DHT22;3431;47.966;10.268;2023-02-15T01:33:07;-2.00;99.90
6788;DHT22;3431;47.966;10.268;2023-02-15T01:33:29;-2.00;99.90
6788;DHT22;3431;47.966;10.268;2023-02-15T01:33:51;-2.00;99.90
6788;DHT22;3431;47.966;10.268;2023-02-15T01:34:13;-2.00;99.90
6788;DHT22;3431;47.966;10.268;2023-02-15T01:34:35;-2.00;99.90
6788;DHT22;3431;47.966;10.268;2023-02-15T01:34:56;-2.00;99.90
6788;DHT22;3431;47.966;10.268;2023-02-15T01:35:18;-2.10;99.90
6788;DHT22;3431;47.966;10.268;2023-02-15T01:35:39;-0.90;99.90
6788;DHT22;3431;47.966;10.268;2023-02-15T01:36:03;-2.10;99.90
6788;DHT22;3431;47.966;10.268;2023-02-15T01:36:27;-2.10;99.90
6788;DHT22;3431;47.966;10.268;2023-02-15T01:36:48;-2.10;99.90
6788;DHT22;3431;47.966;10.268;2023-02-15T01:37:10;-2.10;99.90
6788;DHT22;3431;47.966;10.268;2023-02-15T01:37:31;-2.10;99.90
6788;DHT22;3431;47.966;10.268;2023-02-15T01:37:54;-2.10;99.90
6788;DHT22;3431;47.966;10.268;2023-02-15T01:38:16;-2.10;99.90
6788;DHT22;3431;47.966;10.268;2023-02-15T01:38:39;-2.10;99.90
6788;DHT22;3431;47.966;10.268;2023-02-15T01:39:01;-2.10;99.90
6788;DHT22;3431;47.966;10.268;2023-02-15T01:39:26;-2.10;99.90
6788;DHT22;3431;47.966;10.268;2023-02-15T01:39:47;-2.10;99.90
6788;DHT22;3431;47.966;10.268;2023-02-15T01:40:13;-2.10;99.90
6788;DHT22;3431;47.966;10.268;2023-02-15T01:40:35;-2.10;99.90
6788;DHT22;3431;47.966;10.268;2023-02-15T01:40:56;-2.20;99.90
6788;DHT22;3431;47.966;10.268;2023-02-15T01:41:39;-2.10;99.90
6788;DHT22;3431;47.966;10.268;2023-02-15T01:42:01;-2.20;99.90
6788;DHT22;3431;47.966;10.268;2023-02-15T01:42:23;-2.20;99.90
6788;DHT22;3431;47.966;10.268;2023-02-15T01:42:50;-2.20;99.90
6788;DHT22;3431;47.966;10.268;2023-02-15T01:43:12;-2.20;99.90
6788;DHT22;3431;47.966;10.268;2023-02-15T01:43:40;-2.20;99.90
6788;DHT22;3431;47.966;10.268;2023-02-15T01:44:03;-2.20;99.90
6788;DHT22;3431;47.966;10.268;2023-02-15T01:44:47;-2.20;99.90
6788;DHT22;3431;47.966;10.268;2023-02-15T01:45:18;-2.20;99.90
6788;DHT22;3431;47.966;10.268;2023-02-15T01:45:41;-2.20;99.90
6788;DHT22;3431;47.966;10.268;2023-02-15T01:46:08;-2.20;99.90
6788;DHT22;3431;47.966;10.268;2023-02-15T01:46:33;-2.20;99.90
6788;DHT22;3431;47.966;10.268;2023-02-15T01:46:55;-2.20;99.90
6788;DHT22;3431;47.966;10.268;2023-02-15T01:47:21;-2.20;99.90
6788;DHT22;3431;47.966;10.268;2023-02-15T01:47:47;-2.20;99.90
6788;DHT22;3431;47.966;10.268;2023-02-15T01:48:19;-2.20;99.90
6788;DHT22;3431;47.966;10.268;2023-02-15T01:48:45;-2.20;99.90
6788;DHT22;3431;47.966;10.268;2023-02-15T01:49:12;-2.20;99.90
6788;DHT22;3431;47.966;10.268;2023-02-15T01:49:35;-2.30;99.90
6788;DHT22;3431;47.966;10.268;2023-02-15T01:50:02;-2.20;99.90
6788;DHT22;3431;47.966;10.268;2023-02-15T01:50:28;-2.30;99.90
6788;DHT22;3431;47.966;10.268;2023-02-15T01:50:54;-2.30;99.90
6788;DHT22;3431;47.966;10.268;2023-02-15T01:51:20;-2.30;99.90
6788;DHT22;3431;47.966;10.268;2023-02-15T01:51:46;-2.30;99.90
6788;DHT22;3431;47.966;10.268;2023-02-15T01:52:10;-2.30;99.90
6788;DHT22;3431;47.966;10.268;2023-02-15T01:52:37;-2.40;99.90
6788;DHT22;3431;47.966;10.268;2023-02-15T01:53:05;-2.40;99.90
6788;DHT22;3431;47.966;10.268;2023-02-15T01:53:32;-2.40;99.90
6788;DHT22;3431;47.966;10.268;2023-02-15T01:53:59;-2.40;99.90
6788;DHT22;3431;47.966;10.268;2023-02-15T01:54:25;-2.40;99.90
6788;DHT22;3431;47.966;10.268;2023-02-15T01:54:48;-2.50;99.90
6788;DHT22;3431;47.966;10.268;2023-02-15T01:55:10;-2.40;99.90
6788;DHT22;3431;47.966;10.268;2023-02-15T01:55:37;-2.50;99.90
6788;DHT22;3431;47.966;10.268;2023-02-15T01:56:04;-2.50;99.90
6788;DHT22;3431;47.966;10.268;2023-02-15T01:56:31;-2.50;99.90
6788;DHT22;3431;47.966;10.268;2023-02-15T01:56:55;-2.50;99.90
6788;DHT22;3431;47.966;10.268;2023-02-15T01:57:22;-2.50;99.90
6788;DHT22;3431;47.966;10.268;2023-02-15T01:57:47;-2.50;99.90
6788;DHT22;3431;47.966;10.268;2023-02-15T01:58:09;-2.50;99.90
6788;DHT22;3431;47.966;10.268;2023-02-15T01:58:32;-2.60;99.90
6788;DHT22;3431;47.966;10.268;2023-02-15T01:58:57;-2.60;99.90
6788;DHT22;3431;47.966;10.268;2023-02-15T01:59:23;-2.60;99.90
6788;DHT22;3431;47.966;10.268;2023-02-15T01:59:48;-2.60;99.90
6788;DHT22;3431;47.966;10.268;2023-02-15T02:00:14;-2.60;99.90
6788;DHT22;3431;47.966;10.268;2023-02-15T02:00:37;-2.60;99.90
6788;DHT22;3431;47.966;10.268;2023-02-15T02:01:00;-2.70;99.90
6788;DHT22;3431;47.966;10.268;2023-02-15T02:01:25;-2.60;99.90
6788;DHT22;3431;47.966;10.268;2023-02-15T02:01:48;-2.60;99.90
6788;DHT22;3431;47.966;10.268;2023-02-15T02:02:13;-2.60;99.90
6788;DHT22;3431;47.966;10.268;2023-02-15T02:02:38;-2.60;99.90
6788;DHT22;3431;47.966;10.268;2023-02-15T02:03:00;-2.60;99.90
6788;DHT22;3431;47.966;10.268;2023-02-15T02:03:30;-2.60;99.90
6788;DHT22;3431;47.966;10.268;2023-02-15T02:04:00;-2.60;99.90
6788;DHT22;3431;47.966;10.268;2023-02-15T02:04:31;-2.60;99.90
6788;DHT22;3431;47.966;10.268;2023-02-15T02:04:57;-2.60;99.90
6788;DHT22;3431;47.966;10.268;2023-02-15T02:05:20;-2.60;99.90
6788;DHT22;3431;47.966;10.268;2023-02-15T02:05:42;-2.60;99.90
6788;DHT22;3431;47.966;10.268;2023-02-15T02:06:07;-2.60;99.90
6788;DHT22;3431;47.966;10.268;2023-02-15T02:06:29;-2.60;99.90
6788;DHT22;3431;47.966;10.268;2023-02-15T02:06:52;-2.60;99.90
6788;DHT22;3431;47.966;10.268;2023-02-15T02:07:17;-2.60;99.90
6788;DHT22;3431;47.966;10.268;2023-02-15T02:07:42;-2.60;99.90
6788;DHT22;3431;47.966;10.268;2023-02-15T02:08:06;-2.60;99.90
6788;DHT22;3431;47.966;10.268;2023-02-15T02:08:28;-2.60;99.90
6788;DHT22;3431;47.966;10.268;2023-02-15T02:08:50;-2.60;99.90
6788;DHT22;3431;47.966;10.268;2023-02-15T02:09:14;-2.60;99.90
6788;DHT22;3431;47.966;10.268;2023-02-15T02:09:36;-2.60;99.90
6788;DHT22;3431;47.966;10.268;2023-02-15T02:09:58;-2.60;99.90
6788;DHT22;3431;47.966;10.268;2023-02-15T02:10:24;-2.60;99.90
6788;DHT22;3431;47.966;10.268;2023-02-15T02:10:47;-2.60;99.90
6788;DHT22;3431;47.966;10.268;2023-02-15T02:11:10;-2.60;99.90
6788;DHT22;3431;47.966;10.268;2023-02-15T02:11:33;-2.60;99.90
6788;DHT22;3431;47.966;10.268;2023-02-15T02:11:56;-2.60;99.90
6788;DHT22;3431;47.966;10.268;2023-02-15T02:12:20;-2.60;99.90
6788;DHT22;3431;47.966;10.268;2023-02-15T02:12:45;-2.60;99.90
6788;DHT22;3431;47.966;10.268;2023-02-15T02:13:07;-2.60;99.90
6788;DHT22;3431;47.966;10.268;2023-02-15T02:13:31;-2.60;99.90
6788;DHT22;3431;47.966;10.268;2023-02-15T02:13:54;-2.60;99.90
6788;DHT22;3431;47.966;10.268;2023-02-15T02:14:17;-2.60;99.90
6788;DHT22;3431;47.966;10.268;2023-02-15T02:14:39;-2.60;99.90
6788;DHT22;3431;47.966;10.268;2023-02-15T02:15:02;-2.60;99.90
6788;DHT22;3431;47.966;10.268;2023-02-15T02:15:29;-2.60;99.90
6788;DHT22;3431;47.966;10.268;2023-02-15T02:15:58;-2.60;99.90
6788;DHT22;3431;47.966;10.268;2023-02-15T02:16:25;-2.60;99.90
6788;DHT22;3431;47.966;10.268;2023-02-15T02:16:54;-2.60;99.90
6788;DHT22;3431;47.966;10.268;2023-02-15T02:17:25;-2.60;99.90
6788;DHT22;3431;47.966;10.268;2023-02-15T02:18:01;-2.60;99.90
6788;DHT22;3431;47.966;10.268;2023-02-15T02:18:34;-2.60;99.90
6788;DHT22;3431;47.966;10.268;2023-02-15T02:19:18;-2.60;99.90
6788;DHT22;3431;47.966;10.268;2023-02-15T02:20:13;-2.60;99.90
6788;DHT22;3431;47.966;10.268;2023-02-15T02:20:55;-2.60;99.90
6788;DHT22;3431;47.966;10.268;2023-02-15T02:21:48;-2.60;99.90
6788;DHT22;3431;47.966;10.268;2023-02-15T02:22:34;-2.70;99.90
6788;DHT22;3431;47.966;10.268;2023-02-15T02:23:27;-2.70;99.90
6788;DHT22;3431;47.966;10.268;2023-02-15T02:24:01;-2.70;99.90
6788;DHT22;3431;47.966;10.268;2023-02-15T02:24:59;-2.70;99.90
6788;DHT22;3431;47.966;10.268;2023-02-15T02:26:41;-2.80;99.90
6788;DHT22;3431;47.966;10.268;2023-02-15T02:27:29;-2.90;99.90
6788;DHT22;3431;47.966;10.268;2023-02-15T02:28:01;-3.00;99.90
6788;DHT22;3431;47.966;10.268;2023-02-15T02:28:51;-3.00;99.90
6788;DHT22;3431;47.966;10.268;2023-02-15T02:30:57;-3.20;99.90
6788;DHT22;3431;47.966;10.268;2023-02-15T02:31:41;-3.20;99.90
6788;DHT22;3431;47.966;10.268;2023-02-15T02:34:05;-3.40;99.90
6788;DHT22;3431;47.966;10.268;2023-02-15T02:34:30;-3.40;99.90
6788;DHT22;3431;47.966;10.268;2023-02-15T02:35:00;-3.40;99.90
6788;DHT22;3431;47.966;10.268;2023-02-15T02:35:29;-3.50;99.90
6788;DHT22;3431;47.966;10.268;2023-02-15T02:35:59;-3.50;99.90
6788;DHT22;3431;47.966;10.268;2023-02-15T02:36:29;-3.50;99.90
6788;DHT22;3431;47.966;10.268;2023-02-15T02:36:58;-3.50;99.90
6788;DHT22;3431;47.966;10.268;2023-02-15T02:37:27;-3.60;99.90
6788;DHT22;3431;47.966;10.268;2023-02-15T02:37:56;-3.60;99.90
6788;DHT22;3431;47.966;10.268;2023-02-15T02:38:26;-3.60;99.90
6788;DHT22;3431;47.966;10.268;2023-02-15T02:39:02;-3.60;99.90
6788;DHT22;3431;47.966;10.268;2023-02-15T02:39:33;-3.60;99.90
6788;DHT22;3431;47.966;10.268;2023-02-15T02:40:01;-3.60;99.90